sensor_id;sensor_type;location;lat;lon;timestamp;P1;durP1;ratioP1;P2;durP2;ratioP2
71108;SDS011;59614;51.012;-1.648;2023-04-24T00:02:01;22.02;;;14.20;;
71108;SDS011;59614;51.012;-1.648;2023-04-24T00:04:26;23.33;;;14.38;;
71108;SDS011;59614;51.012;-1.648;2023-04-24T00:06:52;20.13;;;13.73;;
71108;SDS011;59614;51.012;-1.648;2023-04-24T00:09:22;19.25;;;13.23;;
71108;SDS011;59614;51.012;-1.648;2023-04-24T00:11:48;21.58;;;14.18;;
71108;SDS011;59614;51.012;-1.648;2023-04-24T00:14:13;19.02;;;13.20;;
71108;SDS011;59614;51.012;-1.648;2023-04-24T00:16:39;22.60;;;14.50;;
71108;SDS011;59614;51.012;-1.648;2023-04-24T00:19:04;22.05;;;14.15;;
71108;SDS011;59614;51.012;-1.648;2023-04-24T00:21:31;22.25;;;15.25;;
71108;SDS011;59614;51.012;-1.648;2023-04-24T00:23:57;21.98;;;15.02;;
71108;SDS011;59614;51.012;-1.648;2023-04-24T00:26:23;23.13;;;14.02;;
71108;SDS011;59614;51.012;-1.648;2023-04-24T00:28:48;19.85;;;13.18;;
71108;SDS011;59614;51.012;-1.648;2023-04-24T00:31:14;25.10;;;15.43;;
71108;SDS011;59614;51.012;-1.648;2023-04-24T00:33:39;20.38;;;13.32;;
71108;SDS011;59614;51.012;-1.648;2023-04-24T00:36:05;22.25;;;12.70;;
71108;SDS011;59614;51.012;-1.648;2023-04-24T00:38:31;20.58;;;13.48;;
71108;SDS011;59614;51.012;-1.648;2023-04-24T00:40:56;21.30;;;14.57;;
71108;SDS011;59614;51.012;-1.648;2023-04-24T00:43:21;22.13;;;13.95;;
71108;SDS011;59614;51.012;-1.648;2023-04-24T00:45:47;19.70;;;13.23;;
71108;SDS011;59614;51.012;-1.648;2023-04-24T00:48:13;19.23;;;12.77;;
71108;SDS011;59614;51.012;-1.648;2023-04-24T00:50:39;15.85;;;11.77;;
71108;SDS011;59614;51.012;-1.648;2023-04-24T00:53:04;19.17;;;12.45;;
71108;SDS011;59614;51.012;-1.648;2023-04-24T00:55:30;19.63;;;12.73;;
71108;SDS011;59614;51.012;-1.648;2023-04-24T00:57:56;19.08;;;12.70;;
71108;SDS011;59614;51.012;-1.648;2023-04-24T01:00:22;18.98;;;12.75;;
71108;SDS011;59614;51.012;-1.648;2023-04-24T01:02:47;19.75;;;12.80;;
71108;SDS011;59614;51.012;-1.648;2023-04-24T01:05:13;17.27;;;11.50;;
71108;SDS011;59614;51.012;-1.648;2023-04-24T01:07:43;20.15;;;13.23;;
71108;SDS011;59614;51.012;-1.648;2023-04-24T01:10:11;23.30;;;12.90;;
71108;SDS011;59614;51.012;-1.648;2023-04-24T01:12:37;19.83;;;13.00;;
71108;SDS011;59614;51.012;-1.648;2023-04-24T01:15:03;20.83;;;12.95;;
71108;SDS011;59614;51.012;-1.648;2023-04-24T01:17:30;25.05;;;14.60;;
71108;SDS011;59614;51.012;-1.648;2023-04-24T01:19:56;27.33;;;14.98;;
71108;SDS011;59614;51.012;-1.648;2023-04-24T01:22:22;21.40;;;12.85;;
71108;SDS011;59614;51.012;-1.648;2023-04-24T01:24:48;20.67;;;13.23;;
71108;SDS011;59614;51.012;-1.648;2023-04-24T01:27:13;20.48;;;12.52;;
71108;SDS011;59614;51.012;-1.648;2023-04-24T01:29:39;18.55;;;12.60;;
71108;SDS011;59614;51.012;-1.648;2023-04-24T01:32:05;19.48;;;12.65;;
71108;SDS011;59614;51.012;-1.648;2023-04-24T01:34:31;16.10;;;11.52;;
71108;SDS011;59614;51.012;-1.648;2023-04-24T01:36:57;18.73;;;12.57;;
71108;SDS011;59614;51.012;-1.648;2023-04-24T01:39:23;20.15;;;12.95;;
71108;SDS011;59614;51.012;-1.648;2023-04-24T01:41:50;17.63;;;13.03;;
71108;SDS011;59614;51.012;-1.648;2023-04-24T01:44:17;22.08;;;11.80;;
71108;SDS011;59614;51.012;-1.648;2023-04-24T01:46:43;18.23;;;11.68;;
71108;SDS011;59614;51.012;-1.648;2023-04-24T01:49:08;20.98;;;12.25;;
71108;SDS011;59614;51.012;-1.648;2023-04-24T01:51:34;19.02;;;11.95;;
71108;SDS011;59614;51.012;-1.648;2023-04-24T01:53:59;21.83;;;13.50;;
71108;SDS011;59614;51.012;-1.648;2023-04-24T01:56:25;17.20;;;12.27;;
71108;SDS011;59614;51.012;-1.648;2023-04-24T01:58:51;19.98;;;13.10;;
71108;SDS011;59614;51.012;-1.648;2023-04-24T02:01:19;22.17;;;13.27;;
71108;SDS011;59614;51.012;-1.648;2023-04-24T02:03:45;25.13;;;13.55;;
71108;SDS011;59614;51.012;-1.648;2023-04-24T02:06:11;20.25;;;13.32;;
71108;SDS011;59614;51.012;-1.648;2023-04-24T02:08:36;21.33;;;13.55;;
71108;SDS011;59614;51.012;-1.648;2023-04-24T02:11:02;22.35;;;13.43;;
71108;SDS011;59614;51.012;-1.648;2023-04-24T02:13:28;18.92;;;12.43;;
71108;SDS011;59614;51.012;-1.648;2023-04-24T02:15:53;19.70;;;12.25;;
71108;SDS011;59614;51.012;-1.648;2023-04-24T02:18:19;23.52;;;13.90;;
71108;SDS011;59614;51.012;-1.648;2023-04-24T02:20:44;18.85;;;12.88;;
71108;SDS011;59614;51.012;-1.648;2023-04-24T02:23:10;21.55;;;12.88;;
71108;SDS011;59614;51.012;-1.648;2023-04-24T02:25:36;19.77;;;12.25;;
71108;SDS011;59614;51.012;-1.648;2023-04-24T02:28:01;20.13;;;11.68;;
71108;SDS011;59614;51.012;-1.648;2023-04-24T02:30:27;18.67;;;11.45;;
71108;SDS011;59614;51.012;-1.648;2023-04-24T02:32:53;21.60;;;12.98;;
71108;SDS011;59614;51.012;-1.648;2023-04-24T02:35:18;22.17;;;11.95;;
71108;SDS011;59614;51.012;-1.648;2023-04-24T02:37:44;20.50;;;12.25;;
71108;SDS011;59614;51.012;-1.648;2023-04-24T02:40:10;20.52;;;12.43;;
71108;SDS011;59614;51.012;-1.648;2023-04-24T02:42:36;17.88;;;12.43;;
71108;SDS011;59614;51.012;-1.648;2023-04-24T02:45:01;21.77;;;13.57;;
71108;SDS011;59614;51.012;-1.648;2023-04-24T02:47:26;20.38;;;12.25;;
71108;SDS011;59614;51.012;-1.648;2023-04-24T02:49:52;16.67;;;11.45;;
71108;SDS011;59614;51.012;-1.648;2023-04-24T02:52:17;18.73;;;12.65;;
71108;SDS011;59614;51.012;-1.648;2023-04-24T02:54:43;19.15;;;12.57;;
71108;SDS011;59614;51.012;-1.648;2023-04-24T02:57:08;18.63;;;12.60;;
71108;SDS011;59614;51.012;-1.648;2023-04-24T02:59:34;22.50;;;12.07;;
71108;SDS011;59614;51.012;-1.648;2023-04-24T03:01:59;20.27;;;12.20;;
71108;SDS011;59614;51.012;-1.648;2023-04-24T03:04:25;23.65;;;11.32;;
71108;SDS011;59614;51.012;-1.648;2023-04-24T03:06:51;20.05;;;11.60;;
71108;SDS011;59614;51.012;-1.648;2023-04-24T03:09:19;17.90;;;11.93;;
71108;SDS011;59614;51.012;-1.648;2023-04-24T03:11:45;23.08;;;11.65;;
71108;SDS011;59614;51.012;-1.648;2023-04-24T03:14:11;16.67;;;11.23;;
71108;SDS011;59614;51.012;-1.648;2023-04-24T03:16:37;20.20;;;10.75;;
71108;SDS011;59614;51.012;-1.648;2023-04-24T03:19:02;16.33;;;11.15;;
71108;SDS011;59614;51.012;-1.648;2023-04-24T03:21:27;14.63;;;9.85;;
71108;SDS011;59614;51.012;-1.648;2023-04-24T03:23:53;22.25;;;13.27;;
71108;SDS011;59614;51.012;-1.648;2023-04-24T03:26:18;21.85;;;12.52;;
71108;SDS011;59614;51.012;-1.648;2023-04-24T03:28:44;16.83;;;11.05;;
71108;SDS011;59614;51.012;-1.648;2023-04-24T03:31:10;19.83;;;11.85;;
71108;SDS011;59614;51.012;-1.648;2023-04-24T03:33:35;21.90;;;11.85;;
71108;SDS011;59614;51.012;-1.648;2023-04-24T03:36:01;20.50;;;11.52;;
71108;SDS011;59614;51.012;-1.648;2023-04-24T03:38:26;17.15;;;11.10;;
71108;SDS011;59614;51.012;-1.648;2023-04-24T03:40:52;19.05;;;11.00;;
71108;SDS011;59614;51.012;-1.648;2023-04-24T03:43:17;18.85;;;10.98;;
71108;SDS011;59614;51.012;-1.648;2023-04-24T03:45:42;17.52;;;11.65;;
71108;SDS011;59614;51.012;-1.648;2023-04-24T03:48:08;16.27;;;10.32;;
71108;SDS011;59614;51.012;-1.648;2023-04-24T03:50:33;21.80;;;11.82;;
71108;SDS011;59614;51.012;-1.648;2023-04-24T03:52:59;18.52;;;11.23;;
71108;SDS011;59614;51.012;-1.648;2023-04-24T03:55:24;19.48;;;11.80;;
71108;SDS011;59614;51.012;-1.648;2023-04-24T03:57:50;19.38;;;11.95;;
71108;SDS011;59614;51.012;-1.648;2023-04-24T04:00:15;21.10;;;12.13;;
71108;SDS011;59614;51.012;-1.648;2023-04-24T04:02:41;20.00;;;11.45;;
71108;SDS011;59614;51.012;-1.648;2023-04-24T04:05:06;19.25;;;12.38;;
71108;SDS011;59614;51.012;-1.648;2023-04-24T04:07:33;16.48;;;10.18;;
71108;SDS011;59614;51.012;-1.648;2023-04-24T04:09:58;20.58;;;12.40;;
71108;SDS011;59614;51.012;-1.648;2023-04-24T04:12:24;19.45;;;10.98;;
71108;SDS011;59614;51.012;-1.648;2023-04-24T04:14:49;17.90;;;11.60;;
71108;SDS011;59614;51.012;-1.648;2023-04-24T04:17:15;17.33;;;11.38;;
71108;SDS011;59614;51.012;-1.648;2023-04-24T04:19:40;19.60;;;11.48;;
71108;SDS011;59614;51.012;-1.648;2023-04-24T04:22:06;20.02;;;12.07;;
71108;SDS011;59614;51.012;-1.648;2023-04-24T04:24:33;19.23;;;11.25;;
71108;SDS011;59614;51.012;-1.648;2023-04-24T04:26:58;20.77;;;11.43;;
71108;SDS011;59614;51.012;-1.648;2023-04-24T04:29:25;17.65;;;11.70;;
71108;SDS011;59614;51.012;-1.648;2023-04-24T04:31:50;19.92;;;11.57;;
71108;SDS011;59614;51.012;-1.648;2023-04-24T04:34:16;17.35;;;11.73;;
71108;SDS011;59614;51.012;-1.648;2023-04-24T04:36:41;18.67;;;11.05;;
71108;SDS011;59614;51.012;-1.648;2023-04-24T04:39:07;19.10;;;12.30;;
71108;SDS011;59614;51.012;-1.648;2023-04-24T04:41:33;20.58;;;12.20;;
71108;SDS011;59614;51.012;-1.648;2023-04-24T04:44:00;18.02;;;11.60;;
71108;SDS011;59614;51.012;-1.648;2023-04-24T04:46:26;23.33;;;11.13;;
71108;SDS011;59614;51.012;-1.648;2023-04-24T04:48:52;20.65;;;12.05;;
71108;SDS011;59614;51.012;-1.648;2023-04-24T04:51:18;18.77;;;11.98;;
71108;SDS011;59614;51.012;-1.648;2023-04-24T04:53:44;20.80;;;12.05;;
71108;SDS011;59614;51.012;-1.648;2023-04-24T04:56:09;18.13;;;11.65;;
71108;SDS011;59614;51.012;-1.648;2023-04-24T04:58:35;18.40;;;11.98;;
71108;SDS011;59614;51.012;-1.648;2023-04-24T05:01:01;21.15;;;12.07;;
71108;SDS011;59614;51.012;-1.648;2023-04-24T05:03:27;17.88;;;11.48;;
71108;SDS011;59614;51.012;-1.648;2023-04-24T05:05:53;23.20;;;11.73;;
71108;SDS011;59614;51.012;-1.648;2023-04-24T05:08:18;17.85;;;11.35;;
71108;SDS011;59614;51.012;-1.648;2023-04-24T05:10:43;17.23;;;10.40;;
71108;SDS011;59614;51.012;-1.648;2023-04-24T05:13:09;17.55;;;10.38;;
71108;SDS011;59614;51.012;-1.648;2023-04-24T05:15:34;17.27;;;9.80;;
71108;SDS011;59614;51.012;-1.648;2023-04-24T05:18:00;17.58;;;10.43;;
71108;SDS011;59614;51.012;-1.648;2023-04-24T05:20:25;18.13;;;10.18;;
71108;SDS011;59614;51.012;-1.648;2023-04-24T05:22:50;16.80;;;10.82;;
71108;SDS011;59614;51.012;-1.648;2023-04-24T05:25:16;21.48;;;11.32;;
71108;SDS011;59614;51.012;-1.648;2023-04-24T05:27:41;17.83;;;10.05;;
71108;SDS011;59614;51.012;-1.648;2023-04-24T05:30:07;17.27;;;10.65;;
71108;SDS011;59614;51.012;-1.648;2023-04-24T05:32:33;22.23;;;10.50;;
71108;SDS011;59614;51.012;-1.648;2023-04-24T05:34:58;18.02;;;10.95;;
71108;SDS011;59614;51.012;-1.648;2023-04-24T05:37:24;16.55;;;9.90;;
71108;SDS011;59614;51.012;-1.648;2023-04-24T05:39:49;17.75;;;9.93;;
71108;SDS011;59614;51.012;-1.648;2023-04-24T05:42:15;19.95;;;11.27;;
71108;SDS011;59614;51.012;-1.648;2023-04-24T05:44:40;19.35;;;11.10;;
71108;SDS011;59614;51.012;-1.648;2023-04-24T05:47:06;19.90;;;10.80;;
71108;SDS011;59614;51.012;-1.648;2023-04-24T05:49:31;21.88;;;11.18;;
71108;SDS011;59614;51.012;-1.648;2023-04-24T05:51:57;19.98;;;11.93;;
71108;SDS011;59614;51.012;-1.648;2023-04-24T05:54:22;16.77;;;11.18;;
71108;SDS011;59614;51.012;-1.648;2023-04-24T05:56:48;17.50;;;11.00;;
71108;SDS011;59614;51.012;-1.648;2023-04-24T05:59:14;16.15;;;10.98;;
71108;SDS011;59614;51.012;-1.648;2023-04-24T06:01:40;22.95;;;10.98;;
71108;SDS011;59614;51.012;-1.648;2023-04-24T06:04:05;17.15;;;10.23;;
71108;SDS011;59614;51.012;-1.648;2023-04-24T06:06:31;18.77;;;10.35;;
71108;SDS011;59614;51.012;-1.648;2023-04-24T06:08:57;15.60;;;10.48;;
71108;SDS011;59614;51.012;-1.648;2023-04-24T06:11:23;20.73;;;11.32;;
71108;SDS011;59614;51.012;-1.648;2023-04-24T06:13:49;18.40;;;11.02;;
71108;SDS011;59614;51.012;-1.648;2023-04-24T06:16:15;16.55;;;10.05;;
71108;SDS011;59614;51.012;-1.648;2023-04-24T06:18:41;18.60;;;10.40;;
71108;SDS011;59614;51.012;-1.648;2023-04-24T06:21:06;20.20;;;10.10;;
71108;SDS011;59614;51.012;-1.648;2023-04-24T06:23:31;14.88;;;9.68;;
71108;SDS011;59614;51.012;-1.648;2023-04-24T06:25:58;14.95;;;9.85;;
71108;SDS011;59614;51.012;-1.648;2023-04-24T06:28:24;15.60;;;10.52;;
71108;SDS011;59614;51.012;-1.648;2023-04-24T06:30:49;15.07;;;9.65;;
71108;SDS011;59614;51.012;-1.648;2023-04-24T06:33:15;14.40;;;9.13;;
71108;SDS011;59614;51.012;-1.648;2023-04-24T06:35:41;16.05;;;9.65;;
71108;SDS011;59614;51.012;-1.648;2023-04-24T06:38:06;17.63;;;9.55;;
71108;SDS011;59614;51.012;-1.648;2023-04-24T06:40:32;14.20;;;9.73;;
71108;SDS011;59614;51.012;-1.648;2023-04-24T06:42:58;12.98;;;8.70;;
71108;SDS011;59614;51.012;-1.648;2023-04-24T06:45:25;12.80;;;8.80;;
71108;SDS011;59614;51.012;-1.648;2023-04-24T06:47:50;16.25;;;9.65;;
71108;SDS011;59614;51.012;-1.648;2023-04-24T06:50:16;17.20;;;9.60;;
71108;SDS011;59614;51.012;-1.648;2023-04-24T06:52:42;13.95;;;8.88;;
71108;SDS011;59614;51.012;-1.648;2023-04-24T06:55:08;20.15;;;9.85;;
71108;SDS011;59614;51.012;-1.648;2023-04-24T06:57:33;18.63;;;9.13;;
71108;SDS011;59614;51.012;-1.648;2023-04-24T06:59:59;12.82;;;8.32;;
71108;SDS011;59614;51.012;-1.648;2023-04-24T07:02:24;14.10;;;8.93;;
71108;SDS011;59614;51.012;-1.648;2023-04-24T07:04:50;15.40;;;8.20;;
71108;SDS011;59614;51.012;-1.648;2023-04-24T07:07:15;17.67;;;8.82;;
71108;SDS011;59614;51.012;-1.648;2023-04-24T07:09:41;11.48;;;7.32;;
71108;SDS011;59614;51.012;-1.648;2023-04-24T07:12:10;14.85;;;7.63;;
71108;SDS011;59614;51.012;-1.648;2023-04-24T07:14:39;16.27;;;7.70;;
71108;SDS011;59614;51.012;-1.648;2023-04-24T07:17:05;13.05;;;7.47;;
71108;SDS011;59614;51.012;-1.648;2023-04-24T07:19:31;10.73;;;6.32;;
71108;SDS011;59614;51.012;-1.648;2023-04-24T07:21:58;16.10;;;8.27;;
71108;SDS011;59614;51.012;-1.648;2023-04-24T07:24:24;14.85;;;7.65;;
71108;SDS011;59614;51.012;-1.648;2023-04-24T07:26:51;9.68;;;6.13;;
71108;SDS011;59614;51.012;-1.648;2023-04-24T07:29:17;9.60;;;6.80;;
71108;SDS011;59614;51.012;-1.648;2023-04-24T07:31:43;9.68;;;6.38;;
71108;SDS011;59614;51.012;-1.648;2023-04-24T07:34:08;12.52;;;6.85;;
71108;SDS011;59614;51.012;-1.648;2023-04-24T07:36:34;9.90;;;5.72;;
71108;SDS011;59614;51.012;-1.648;2023-04-24T07:39:00;9.88;;;6.30;;
71108;SDS011;59614;51.012;-1.648;2023-04-24T07:41:25;9.20;;;6.25;;
71108;SDS011;59614;51.012;-1.648;2023-04-24T07:43:52;16.15;;;7.60;;
71108;SDS011;59614;51.012;-1.648;2023-04-24T07:46:18;11.30;;;6.35;;
71108;SDS011;59614;51.012;-1.648;2023-04-24T07:48:44;9.55;;;6.35;;
71108;SDS011;59614;51.012;-1.648;2023-04-24T07:51:11;10.35;;;6.28;;
71108;SDS011;59614;51.012;-1.648;2023-04-24T07:53:38;9.35;;;6.18;;
71108;SDS011;59614;51.012;-1.648;2023-04-24T07:56:05;10.68;;;6.50;;
71108;SDS011;59614;51.012;-1.648;2023-04-24T07:58:31;11.27;;;6.65;;
71108;SDS011;59614;51.012;-1.648;2023-04-24T08:00:56;12.23;;;5.85;;
71108;SDS011;59614;51.012;-1.648;2023-04-24T08:03:23;9.77;;;6.40;;
71108;SDS011;59614;51.012;-1.648;2023-04-24T08:05:49;10.02;;;6.80;;
71108;SDS011;59614;51.012;-1.648;2023-04-24T08:08:16;14.10;;;6.65;;
71108;SDS011;59614;51.012;-1.648;2023-04-24T08:10:41;11.43;;;6.72;;
71108;SDS011;59614;51.012;-1.648;2023-04-24T08:13:07;9.90;;;6.07;;
71108;SDS011;59614;51.012;-1.648;2023-04-24T08:15:32;16.55;;;7.80;;
71108;SDS011;59614;51.012;-1.648;2023-04-24T08:17:58;12.55;;;7.43;;
71108;SDS011;59614;51.012;-1.648;2023-04-24T08:20:23;10.07;;;6.72;;
71108;SDS011;59614;51.012;-1.648;2023-04-24T08:22:49;11.98;;;6.85;;
71108;SDS011;59614;51.012;-1.648;2023-04-24T08:25:14;9.30;;;5.95;;
71108;SDS011;59614;51.012;-1.648;2023-04-24T08:27:39;10.90;;;5.93;;
71108;SDS011;59614;51.012;-1.648;2023-04-24T08:30:05;12.35;;;6.28;;
71108;SDS011;59614;51.012;-1.648;2023-04-24T08:32:31;15.07;;;7.60;;
71108;SDS011;59614;51.012;-1.648;2023-04-24T08:34:57;9.90;;;7.00;;
71108;SDS011;59614;51.012;-1.648;2023-04-24T08:37:24;13.55;;;7.50;;
71108;SDS011;59614;51.012;-1.648;2023-04-24T08:39:51;9.88;;;7.40;;
71108;SDS011;59614;51.012;-1.648;2023-04-24T08:42:17;13.90;;;7.97;;
71108;SDS011;59614;51.012;-1.648;2023-04-24T08:44:43;13.90;;;7.85;;
71108;SDS011;59614;51.012;-1.648;2023-04-24T08:47:10;10.85;;;7.72;;
71108;SDS011;59614;51.012;-1.648;2023-04-24T08:49:36;15.38;;;7.32;;
71108;SDS011;59614;51.012;-1.648;2023-04-24T08:52:03;11.45;;;8.27;;
71108;SDS011;59614;51.012;-1.648;2023-04-24T08:54:29;11.38;;;7.53;;
71108;SDS011;59614;51.012;-1.648;2023-04-24T08:56:58;12.02;;;7.97;;
71108;SDS011;59614;51.012;-1.648;2023-04-24T08:59:29;11.20;;;6.65;;
71108;SDS011;59614;51.012;-1.648;2023-04-24T09:01:55;14.70;;;7.82;;
71108;SDS011;59614;51.012;-1.648;2023-04-24T09:04:21;11.63;;;8.18;;
71108;SDS011;59614;51.012;-1.648;2023-04-24T09:09:15;13.88;;;8.70;;
71108;SDS011;59614;51.012;-1.648;2023-04-24T09:11:41;13.18;;;8.52;;
71108;SDS011;59614;51.012;-1.648;2023-04-24T09:14:07;14.05;;;8.10;;
71108;SDS011;59614;51.012;-1.648;2023-04-24T09:16:34;17.65;;;8.85;;
71108;SDS011;59614;51.012;-1.648;2023-04-24T09:19:00;13.63;;;9.18;;
71108;SDS011;59614;51.012;-1.648;2023-04-24T09:21:30;12.93;;;8.50;;
71108;SDS011;59614;51.012;-1.648;2023-04-24T09:23:58;13.57;;;8.38;;
71108;SDS011;59614;51.012;-1.648;2023-04-24T09:26:29;13.73;;;8.13;;
71108;SDS011;59614;51.012;-1.648;2023-04-24T09:28:59;14.93;;;8.35;;
71108;SDS011;59614;51.012;-1.648;2023-04-24T09:31:26;15.75;;;8.38;;
71108;SDS011;59614;51.012;-1.648;2023-04-24T09:33:54;15.05;;;8.70;;
71108;SDS011;59614;51.012;-1.648;2023-04-24T09:36:30;10.02;;;8.00;;
71108;SDS011;59614;51.012;-1.648;2023-04-24T09:39:02;10.32;;;7.20;;
71108;SDS011;59614;51.012;-1.648;2023-04-24T09:41:33;12.43;;;7.43;;
71108;SDS011;59614;51.012;-1.648;2023-04-24T09:46:56;12.93;;;7.65;;
71108;SDS011;59614;51.012;-1.648;2023-04-24T09:49:24;15.85;;;8.10;;
71108;SDS011;59614;51.012;-1.648;2023-04-24T09:52:07;10.88;;;7.68;;
71108;SDS011;59614;51.012;-1.648;2023-04-24T09:54:35;10.60;;;6.75;;
71108;SDS011;59614;51.012;-1.648;2023-04-24T09:57:01;10.50;;;7.10;;
71108;SDS011;59614;51.012;-1.648;2023-04-24T09:59:27;11.25;;;7.07;;
71108;SDS011;59614;51.012;-1.648;2023-04-24T10:01:54;9.13;;;6.75;;
71108;SDS011;59614;51.012;-1.648;2023-04-24T10:06:49;12.10;;;7.40;;
71108;SDS011;59614;51.012;-1.648;2023-04-24T10:09:16;8.80;;;6.82;;
71108;SDS011;59614;51.012;-1.648;2023-04-24T10:11:44;12.85;;;6.85;;
71108;SDS011;59614;51.012;-1.648;2023-04-24T10:14:12;12.57;;;6.65;;
71108;SDS011;59614;51.012;-1.648;2023-04-24T10:16:39;12.10;;;7.28;;
71108;SDS011;59614;51.012;-1.648;2023-04-24T10:19:05;13.07;;;7.10;;
71108;SDS011;59614;51.012;-1.648;2023-04-24T10:21:31;15.00;;;7.90;;
71108;SDS011;59614;51.012;-1.648;2023-04-24T10:23:57;16.05;;;6.88;;
71108;SDS011;59614;51.012;-1.648;2023-04-24T10:26:24;13.80;;;6.90;;
71108;SDS011;59614;51.012;-1.648;2023-04-24T10:28:52;10.27;;;6.50;;
71108;SDS011;59614;51.012;-1.648;2023-04-24T10:31:19;9.60;;;6.40;;
71108;SDS011;59614;51.012;-1.648;2023-04-24T10:33:45;9.23;;;6.60;;
71108;SDS011;59614;51.012;-1.648;2023-04-24T10:36:11;11.45;;;5.75;;
71108;SDS011;59614;51.012;-1.648;2023-04-24T10:38:39;8.95;;;6.18;;
71108;SDS011;59614;51.012;-1.648;2023-04-24T10:41:11;11.02;;;6.53;;
71108;SDS011;59614;51.012;-1.648;2023-04-24T10:43:44;10.93;;;6.63;;
71108;SDS011;59614;51.012;-1.648;2023-04-24T10:46:10;8.93;;;5.95;;
71108;SDS011;59614;51.012;-1.648;2023-04-24T10:48:44;10.98;;;6.25;;
71108;SDS011;59614;51.012;-1.648;2023-04-24T10:51:21;13.30;;;6.30;;
71108;SDS011;59614;51.012;-1.648;2023-04-24T10:53:47;9.63;;;6.43;;
71108;SDS011;59614;51.012;-1.648;2023-04-24T10:56:15;10.57;;;6.35;;
71108;SDS011;59614;51.012;-1.648;2023-04-24T10:58:42;11.25;;;6.32;;
71108;SDS011;59614;51.012;-1.648;2023-04-24T11:04:00;9.07;;;6.40;;
71108;SDS011;59614;51.012;-1.648;2023-04-24T11:06:28;9.15;;;6.70;;
71108;SDS011;59614;51.012;-1.648;2023-04-24T11:09:05;14.32;;;7.90;;
71108;SDS011;59614;51.012;-1.648;2023-04-24T11:11:37;9.80;;;7.60;;
71108;SDS011;59614;51.012;-1.648;2023-04-24T11:14:09;10.55;;;7.47;;
71108;SDS011;59614;51.012;-1.648;2023-04-24T11:24:26;8.85;;;4.07;;
71108;SDS011;59614;51.012;-1.648;2023-04-24T11:26:53;7.82;;;4.05;;
71108;SDS011;59614;51.012;-1.648;2023-04-24T11:29:20;7.68;;;4.57;;
71108;SDS011;59614;51.012;-1.648;2023-04-24T11:31:46;13.10;;;5.70;;
71108;SDS011;59614;51.012;-1.648;2023-04-24T11:34:16;11.18;;;6.93;;
71108;SDS011;59614;51.012;-1.648;2023-04-24T11:36:43;10.10;;;7.47;;
71108;SDS011;59614;51.012;-1.648;2023-04-24T11:39:10;9.82;;;7.40;;
71108;SDS011;59614;51.012;-1.648;2023-04-24T11:41:37;10.38;;;7.80;;
71108;SDS011;59614;51.012;-1.648;2023-04-24T11:44:03;11.93;;;7.10;;
71108;SDS011;59614;51.012;-1.648;2023-04-24T11:46:32;10.93;;;6.63;;
71108;SDS011;59614;51.012;-1.648;2023-04-24T11:48:57;12.48;;;8.05;;
71108;SDS011;59614;51.012;-1.648;2023-04-24T11:51:24;13.50;;;8.65;;
71108;SDS011;59614;51.012;-1.648;2023-04-24T11:53:50;12.40;;;7.57;;
71108;SDS011;59614;51.012;-1.648;2023-04-24T11:56:23;10.68;;;5.82;;
71108;SDS011;59614;51.012;-1.648;2023-04-24T11:58:51;11.52;;;5.03;;
71108;SDS011;59614;51.012;-1.648;2023-04-24T12:01:18;12.55;;;6.85;;
71108;SDS011;59614;51.012;-1.648;2023-04-24T12:03:47;12.02;;;7.72;;
71108;SDS011;59614;51.012;-1.648;2023-04-24T12:06:13;11.95;;;8.05;;
71108;SDS011;59614;51.012;-1.648;2023-04-24T12:08:39;11.45;;;8.52;;
71108;SDS011;59614;51.012;-1.648;2023-04-24T12:11:05;14.13;;;8.73;;
71108;SDS011;59614;51.012;-1.648;2023-04-24T12:13:35;9.40;;;7.18;;
71108;SDS011;59614;51.012;-1.648;2023-04-24T12:16:02;9.38;;;5.85;;
71108;SDS011;59614;51.012;-1.648;2023-04-24T12:18:29;6.45;;;4.38;;
71108;SDS011;59614;51.012;-1.648;2023-04-24T12:20:55;7.90;;;4.57;;
71108;SDS011;59614;51.012;-1.648;2023-04-24T12:23:39;6.47;;;4.30;;
71108;SDS011;59614;51.012;-1.648;2023-04-24T12:26:08;8.50;;;4.65;;
71108;SDS011;59614;51.012;-1.648;2023-04-24T12:28:34;11.52;;;4.80;;
71108;SDS011;59614;51.012;-1.648;2023-04-24T12:31:01;7.23;;;4.57;;
71108;SDS011;59614;51.012;-1.648;2023-04-24T12:33:27;8.20;;;4.80;;
71108;SDS011;59614;51.012;-1.648;2023-04-24T12:35:57;8.23;;;5.10;;
71108;SDS011;59614;51.012;-1.648;2023-04-24T12:38:23;7.18;;;5.45;;
71108;SDS011;59614;51.012;-1.648;2023-04-24T12:41:01;11.53;;;5.87;;
71108;SDS011;59614;51.012;-1.648;2023-04-24T12:45:53;8.05;;;5.72;;
71108;SDS011;59614;51.012;-1.648;2023-04-24T12:48:18;8.05;;;5.78;;
71108;SDS011;59614;51.012;-1.648;2023-04-24T12:50:45;11.23;;;6.03;;
71108;SDS011;59614;51.012;-1.648;2023-04-24T12:53:10;10.80;;;6.32;;
71108;SDS011;59614;51.012;-1.648;2023-04-24T12:55:36;11.45;;;6.53;;
71108;SDS011;59614;51.012;-1.648;2023-04-24T12:58:02;12.98;;;7.40;;
71108;SDS011;59614;51.012;-1.648;2023-04-24T13:00:28;10.73;;;7.05;;
71108;SDS011;59614;51.012;-1.648;2023-04-24T13:02:53;12.00;;;7.20;;
71108;SDS011;59614;51.012;-1.648;2023-04-24T13:05:19;12.57;;;6.45;;
71108;SDS011;59614;51.012;-1.648;2023-04-24T13:07:44;10.95;;;6.93;;
71108;SDS011;59614;51.012;-1.648;2023-04-24T13:10:10;12.40;;;6.47;;
71108;SDS011;59614;51.012;-1.648;2023-04-24T13:12:35;8.75;;;5.50;;
71108;SDS011;59614;51.012;-1.648;2023-04-24T13:15:02;7.35;;;4.68;;
71108;SDS011;59614;51.012;-1.648;2023-04-24T13:17:28;7.97;;;4.90;;
71108;SDS011;59614;51.012;-1.648;2023-04-24T13:19:54;8.85;;;4.45;;
71108;SDS011;59614;51.012;-1.648;2023-04-24T13:22:20;6.00;;;4.00;;
71108;SDS011;59614;51.012;-1.648;2023-04-24T13:24:45;8.35;;;3.90;;
71108;SDS011;59614;51.012;-1.648;2023-04-24T13:27:13;6.35;;;3.55;;
71108;SDS011;59614;51.012;-1.648;2023-04-24T13:29:39;9.90;;;3.80;;
71108;SDS011;59614;51.012;-1.648;2023-04-24T13:32:04;8.30;;;3.72;;
71108;SDS011;59614;51.012;-1.648;2023-04-24T13:34:30;7.88;;;3.55;;
71108;SDS011;59614;51.012;-1.648;2023-04-24T13:36:56;9.57;;;3.53;;
71108;SDS011;59614;51.012;-1.648;2023-04-24T13:39:23;8.45;;;3.63;;
71108;SDS011;59614;51.012;-1.648;2023-04-24T13:41:50;5.70;;;3.13;;
71108;SDS011;59614;51.012;-1.648;2023-04-24T13:44:16;7.95;;;3.83;;
71108;SDS011;59614;51.012;-1.648;2023-04-24T13:46:43;9.73;;;3.70;;
71108;SDS011;59614;51.012;-1.648;2023-04-24T13:49:10;5.97;;;3.40;;
71108;SDS011;59614;51.012;-1.648;2023-04-24T13:51:36;6.85;;;3.88;;
71108;SDS011;59614;51.012;-1.648;2023-04-24T13:54:02;9.05;;;4.40;;
71108;SDS011;59614;51.012;-1.648;2023-04-24T13:56:27;6.95;;;3.95;;
71108;SDS011;59614;51.012;-1.648;2023-04-24T13:58:53;7.93;;;4.45;;
71108;SDS011;59614;51.012;-1.648;2023-04-24T14:01:21;5.82;;;4.22;;
71108;SDS011;59614;51.012;-1.648;2023-04-24T14:03:53;12.05;;;4.85;;
71108;SDS011;59614;51.012;-1.648;2023-04-24T14:06:19;7.50;;;4.38;;
71108;SDS011;59614;51.012;-1.648;2023-04-24T14:08:45;6.43;;;4.10;;
71108;SDS011;59614;51.012;-1.648;2023-04-24T14:11:11;9.43;;;5.75;;
71108;SDS011;59614;51.012;-1.648;2023-04-24T14:13:37;14.75;;;7.45;;
71108;SDS011;59614;51.012;-1.648;2023-04-24T14:16:04;9.40;;;6.45;;
71108;SDS011;59614;51.012;-1.648;2023-04-24T14:18:30;12.02;;;5.85;;
71108;SDS011;59614;51.012;-1.648;2023-04-24T14:20:56;10.65;;;5.93;;
71108;SDS011;59614;51.012;-1.648;2023-04-24T14:23:21;11.10;;;6.30;;
71108;SDS011;59614;51.012;-1.648;2023-04-24T14:25:46;11.88;;;6.65;;
71108;SDS011;59614;51.012;-1.648;2023-04-24T14:28:15;16.10;;;9.13;;
71108;SDS011;59614;51.012;-1.648;2023-04-24T14:30:41;14.30;;;8.60;;
71108;SDS011;59614;51.012;-1.648;2023-04-24T14:33:07;12.85;;;9.13;;
71108;SDS011;59614;51.012;-1.648;2023-04-24T14:35:32;12.90;;;7.85;;